createdAt,value
2023-03-02T00:01:53.188Z,16.23
2023-03-02T00:04:22.036Z,10.88
2023-03-02T00:06:49.735Z,13.70
2023-03-02T00:09:17.298Z,11.93
2023-03-02T00:11:46.291Z,10.80
2023-03-02T00:14:13.435Z,12.07
2023-03-02T00:16:40.884Z,12.93
2023-03-02T00:19:08.071Z,11.48
2023-03-02T00:21:35.199Z,12.02
2023-03-02T00:24:02.384Z,12.90
2023-03-02T00:26:29.605Z,12.95
2023-03-02T00:28:56.802Z,11.38
2023-03-02T00:31:24.045Z,12.88
2023-03-02T00:33:54.225Z,17.00
2023-03-02T00:36:21.506Z,13.23
2023-03-02T00:38:48.714Z,12.20
2023-03-02T00:41:16.180Z,13.32
2023-03-02T00:43:43.346Z,11.45
2023-03-02T00:46:17.431Z,10.75
2023-03-02T00:48:44.819Z,12.00
2023-03-02T00:51:12.119Z,9.73
2023-03-02T00:53:39.260Z,9.93
2023-03-02T00:56:06.722Z,10.15
2023-03-02T00:58:33.879Z,10.63
2023-03-02T01:01:05.104Z,10.68
2023-03-02T01:03:32.371Z,10.27
2023-03-02T01:06:00.763Z,10.32
2023-03-02T01:08:27.991Z,13.02
2023-03-02T01:10:55.205Z,9.65
2023-03-02T01:13:22.465Z,10.38
2023-03-02T01:15:49.720Z,9.50
2023-03-02T01:18:16.972Z,9.85
2023-03-02T01:20:44.174Z,10.50
2023-03-02T01:23:11.561Z,10.77
2023-03-02T01:25:39.705Z,10.73
2023-03-02T01:28:06.913Z,11.82
2023-03-02T01:30:34.203Z,11.30
2023-03-02T01:33:01.364Z,9.32
2023-03-02T01:35:28.580Z,9.57
2023-03-02T01:37:55.811Z,9.95
2023-03-02T01:40:23.062Z,9.90
2023-03-02T01:42:53.601Z,8.95
2023-03-02T01:45:59.501Z,8.27
2023-03-02T01:48:28.240Z,9.10
2023-03-02T01:50:55.526Z,9.38
2023-03-02T01:53:23.020Z,10.45
2023-03-02T01:55:50.171Z,9.70
2023-03-02T01:58:18.131Z,10.65
2023-03-02T02:00:45.641Z,9.80
2023-03-02T02:03:21.128Z,9.77
2023-03-02T02:06:07.318Z,10.32
2023-03-02T02:08:34.531Z,10.65
2023-03-02T02:11:01.852Z,10.23
2023-03-02T02:13:29.312Z,9.38
2023-03-02T02:15:56.456Z,9.63
2023-03-02T02:18:23.584Z,9.98
2023-03-02T02:20:50.782Z,9.77
2023-03-02T02:23:34.399Z,10.02
2023-03-02T02:26:04.626Z,10.13
2023-03-02T02:28:52.125Z,9.73
2023-03-02T02:31:23.505Z,12.07
2023-03-02T02:33:52.079Z,10.77
2023-03-02T02:36:23.772Z,13.98
2023-03-02T02:38:51.303Z,10.75
2023-03-02T02:41:22.261Z,10.85
2023-03-02T02:43:49.662Z,12.30
2023-03-02T02:46:16.858Z,13.50
2023-03-02T02:48:44.118Z,12.80
2023-03-02T02:51:11.691Z,13.40
2023-03-02T02:53:47.401Z,12.48
2023-03-02T02:56:14.578Z,12.85
2023-03-02T02:58:43.365Z,11.30
2023-03-02T03:01:13.044Z,15.43
2023-03-02T03:03:40.231Z,11.88
2023-03-02T03:06:08.548Z,12.80
2023-03-02T03:08:45.613Z,12.73
2023-03-02T03:11:15.355Z,11.68
2023-03-02T03:13:42.948Z,9.90
2023-03-02T03:16:10.761Z,10.82
2023-03-02T03:18:37.912Z,15.30
2023-03-02T03:21:05.181Z,15.60
2023-03-02T03:23:32.328Z,11.03
2023-03-02T03:25:59.460Z,11.35
2023-03-02T03:28:27.757Z,9.40
2023-03-02T03:30:55.010Z,14.52
2023-03-02T03:33:22.325Z,9.95
2023-03-02T03:35:49.494Z,14.93
2023-03-02T03:38:16.657Z,10.80
2023-03-02T03:40:43.810Z,10.43
2023-03-02T03:43:13.684Z,10.82
2023-03-02T03:45:40.843Z,10.57
2023-03-02T03:48:08.101Z,9.82
2023-03-02T03:50:35.561Z,13.68
2023-03-02T03:53:03.918Z,9.40
2023-03-02T03:55:31.661Z,8.77
2023-03-02T03:57:58.793Z,9.45
2023-03-02T04:00:26.006Z,10.52
2023-03-02T04:02:53.263Z,8.13
2023-03-02T04:05:20.467Z,9.77
2023-03-02T04:07:47.604Z,10.68
2023-03-02T04:10:14.790Z,8.63
2023-03-02T04:12:42.046Z,10.03
2023-03-02T04:15:09.625Z,11.33
2023-03-02T04:17:36.795Z,12.35
2023-03-02T04:20:07.665Z,11.85
2023-03-02T04:22:34.860Z,8.53
2023-03-02T04:25:02.058Z,8.52
2023-03-02T04:27:29.280Z,10.30
2023-03-02T04:29:56.432Z,10.80
2023-03-02T04:32:23.650Z,9.85
2023-03-02T04:34:50.904Z,10.82
2023-03-02T04:37:18.092Z,7.57
2023-03-02T04:39:50.023Z,7.97
2023-03-02T04:42:17.311Z,8.82
2023-03-02T04:44:44.510Z,7.88
2023-03-02T04:47:11.736Z,7.38
2023-03-02T04:49:38.995Z,9.60
2023-03-02T04:52:06.235Z,9.77
2023-03-02T04:54:34.062Z,8.15
2023-03-02T04:57:01.212Z,9.32
2023-03-02T04:59:28.531Z,9.20
2023-03-02T05:01:56.177Z,7.18
2023-03-02T05:04:23.489Z,8.02
2023-03-02T05:06:51.373Z,8.18
2023-03-02T05:09:18.675Z,8.43
2023-03-02T05:11:45.879Z,9.65
2023-03-02T05:14:13.132Z,7.95
2023-03-02T05:16:41.229Z,10.27
2023-03-02T05:19:09.169Z,8.13
2023-03-02T05:21:36.428Z,7.88
2023-03-02T05:24:04.066Z,9.00
2023-03-02T05:26:31.708Z,8.98
2023-03-02T05:28:59.146Z,8.57
2023-03-02T05:31:37.031Z,8.10
2023-03-02T05:34:04.943Z,8.40
2023-03-02T05:36:32.388Z,7.30
2023-03-02T05:38:59.717Z,9.17
2023-03-02T05:41:27.082Z,8.13
2023-03-02T05:43:54.250Z,7.80
2023-03-02T05:46:22.153Z,8.43
2023-03-02T05:48:49.441Z,9.18
2023-03-02T05:51:16.587Z,9.48
2023-03-02T05:53:43.827Z,11.13
2023-03-02T05:56:11.031Z,9.68
2023-03-02T05:58:38.218Z,11.27
2023-03-02T06:01:08.340Z,9.70
2023-03-02T06:03:35.499Z,9.10
2023-03-02T06:06:02.656Z,8.80
2023-03-02T06:08:29.825Z,8.82
2023-03-02T06:10:57.226Z,8.55
2023-03-02T06:13:24.401Z,9.10
2023-03-02T06:15:51.552Z,8.27
2023-03-02T06:18:18.957Z,9.30
2023-03-02T06:20:46.200Z,8.95
2023-03-02T06:23:13.936Z,9.48
2023-03-02T06:25:43.712Z,9.53
2023-03-02T06:28:10.964Z,9.93
2023-03-02T06:30:38.116Z,8.90
2023-03-02T06:33:05.291Z,8.93
2023-03-02T06:35:33.493Z,8.90
2023-03-02T06:38:00.736Z,10.05
2023-03-02T06:40:27.913Z,9.65
2023-03-02T06:42:55.059Z,9.35
2023-03-02T06:45:22.294Z,8.38
2023-03-02T06:47:49.489Z,9.00
2023-03-02T06:50:16.731Z,9.02
2023-03-02T06:52:43.873Z,10.65
2023-03-02T06:55:11.249Z,9.68
2023-03-02T06:57:38.426Z,9.82
2023-03-02T07:00:14.059Z,8.45
2023-03-02T07:02:41.212Z,8.90
2023-03-02T07:05:08.571Z,10.48
2023-03-02T07:07:35.751Z,8.55
2023-03-02T07:10:03.001Z,8.48
2023-03-02T07:12:30.249Z,9.65
2023-03-02T07:14:57.470Z,10.70
2023-03-02T07:17:24.662Z,9.38
2023-03-02T07:19:51.827Z,10.10
2023-03-02T07:22:18.973Z,9.20
2023-03-02T07:24:46.143Z,9.10
2023-03-02T07:27:13.285Z,9.52
2023-03-02T07:29:40.426Z,9.57
2023-03-02T07:32:07.682Z,9.63
2023-03-02T07:34:34.880Z,9.73
2023-03-02T07:37:02.057Z,8.85
2023-03-02T07:39:29.254Z,7.65
2023-03-02T07:42:00.123Z,8.48
2023-03-02T07:44:27.452Z,9.35
2023-03-02T07:46:54.707Z,8.50
2023-03-02T07:49:21.909Z,11.43
2023-03-02T07:51:49.061Z,27.58
2023-03-02T07:54:16.230Z,14.02
2023-03-02T07:56:43.395Z,11.07
2023-03-02T07:59:11.894Z,9.30
2023-03-02T08:01:39.128Z,9.05
2023-03-02T08:04:06.349Z,8.43
2023-03-02T08:06:33.533Z,9.75
2023-03-02T08:09:02.269Z,9.03
2023-03-02T08:11:29.480Z,8.10
2023-03-02T08:13:56.654Z,24.05
2023-03-02T08:16:26.369Z,9.18
2023-03-02T08:18:53.678Z,11.97
2023-03-02T08:21:21.892Z,10.15
2023-03-02T08:23:49.137Z,8.75
2023-03-02T08:26:17.582Z,9.10
2023-03-02T08:28:44.898Z,9.38
2023-03-02T08:31:12.158Z,8.35
2023-03-02T08:33:39.476Z,9.63
2023-03-02T08:36:06.763Z,9.48
2023-03-02T08:38:33.966Z,8.95
2023-03-02T08:41:03.555Z,9.40
2023-03-02T08:43:30.717Z,8.68
2023-03-02T08:45:58.097Z,8.85
2023-03-02T08:48:25.491Z,9.93
2023-03-02T08:50:56.179Z,8.95
2023-03-02T08:53:23.542Z,9.00
2023-03-02T08:55:50.873Z,7.90
2023-03-02T08:58:18.038Z,9.18
2023-03-02T09:00:45.277Z,7.82
2023-03-02T09:03:12.529Z,8.75
2023-03-02T09:05:39.732Z,8.55
2023-03-02T09:08:06.929Z,9.52
2023-03-02T09:10:34.107Z,9.40
2023-03-02T09:13:01.327Z,9.68
2023-03-02T09:15:28.518Z,8.95
2023-03-02T09:17:55.795Z,8.55
2023-03-02T09:20:22.968Z,7.80
2023-03-02T09:22:50.919Z,7.43
2023-03-02T09:25:18.809Z,8.32
2023-03-02T09:27:46.607Z,8.75
2023-03-02T09:30:14.105Z,8.25
2023-03-02T09:32:41.617Z,8.52
2023-03-02T09:35:09.003Z,7.70
2023-03-02T09:37:38.784Z,8.47
2023-03-02T09:40:06.859Z,8.70
2023-03-02T09:42:43.944Z,7.15
2023-03-02T09:45:30.576Z,8.00
2023-03-02T09:48:26.828Z,7.70
2023-03-02T09:51:12.713Z,7.03
2023-03-02T09:53:58.612Z,7.78
2023-03-02T09:56:25.833Z,7.50
2023-03-02T09:58:54.906Z,7.68
2023-03-02T10:01:25.928Z,7.60
2023-03-02T10:04:01.480Z,7.00
2023-03-02T10:06:30.006Z,7.03
2023-03-02T10:08:57.493Z,7.00
2023-03-02T10:11:32.305Z,7.05
2023-03-02T10:14:01.652Z,7.90
2023-03-02T10:16:35.441Z,7.68
2023-03-02T10:19:18.808Z,6.90
2023-03-02T10:22:08.320Z,8.20
2023-03-02T10:24:38.594Z,7.22
2023-03-02T10:27:14.810Z,7.30
2023-03-02T10:29:41.976Z,6.88
2023-03-02T10:32:18.065Z,6.70
2023-03-02T10:34:45.324Z,6.50
2023-03-02T10:37:12.890Z,7.00
2023-03-02T10:39:40.045Z,7.18
2023-03-02T10:42:07.786Z,6.95
2023-03-02T10:44:39.152Z,7.20
2023-03-02T10:47:07.509Z,6.40
2023-03-02T10:49:35.462Z,6.15
2023-03-02T10:52:05.725Z,6.72
2023-03-02T10:54:33.768Z,6.45
2023-03-02T10:57:01.711Z,6.93
2023-03-02T10:59:41.373Z,7.00
2023-03-02T11:02:15.978Z,7.22
2023-03-02T11:04:43.237Z,7.65
2023-03-02T11:07:13.008Z,6.85
2023-03-02T11:09:40.229Z,6.70
2023-03-02T11:12:12.344Z,6.05
2023-03-02T11:14:39.549Z,6.20
2023-03-02T11:17:42.021Z,6.30
2023-03-02T11:20:11.064Z,6.57
2023-03-02T11:22:39.646Z,7.45
2023-03-02T11:25:07.529Z,8.25
2023-03-02T11:27:35.786Z,7.07
2023-03-02T11:30:19.823Z,7.13
2023-03-02T11:32:53.171Z,7.25
2023-03-02T11:35:23.261Z,6.70
2023-03-02T11:37:54.820Z,7.00
2023-03-02T11:40:32.280Z,6.87
2023-03-02T11:43:00.106Z,6.53
2023-03-02T11:45:28.274Z,6.88
2023-03-02T11:48:02.373Z,9.55
2023-03-02T11:50:30.357Z,8.63
2023-03-02T11:53:01.335Z,7.60
2023-03-02T11:55:28.924Z,6.80
2023-03-02T11:57:56.711Z,7.00
2023-03-02T12:00:30.030Z,6.50
2023-03-02T12:03:04.636Z,9.55
2023-03-02T12:05:35.724Z,7.07
2023-03-02T12:08:04.087Z,8.02
2023-03-02T12:10:32.878Z,7.32
2023-03-02T12:13:17.131Z,7.88
2023-03-02T12:15:47.700Z,6.05
2023-03-02T12:18:24.825Z,6.25
2023-03-02T12:21:01.299Z,6.78
2023-03-02T12:23:28.468Z,6.78
2023-03-02T12:26:09.145Z,6.25
2023-03-02T12:28:39.810Z,5.68
2023-03-02T12:31:10.079Z,6.00
2023-03-02T12:33:47.484Z,6.68
2023-03-02T12:36:16.097Z,6.05
2023-03-02T12:38:47.865Z,6.03
2023-03-02T12:41:35.740Z,6.68
2023-03-02T12:44:06.935Z,9.80
2023-03-02T12:46:35.121Z,7.72
2023-03-02T12:49:14.502Z,7.93
2023-03-02T12:51:44.955Z,7.80
2023-03-02T12:54:19.316Z,7.20
2023-03-02T12:56:46.526Z,6.78
2023-03-02T12:59:23.762Z,7.72
2023-03-02T13:01:50.990Z,7.05
2023-03-02T13:04:25.032Z,7.05
2023-03-02T13:06:52.404Z,16.00
2023-03-02T13:09:20.387Z,10.52
2023-03-02T13:11:48.820Z,22.27
2023-03-02T13:14:22.261Z,12.30
2023-03-02T13:16:56.024Z,9.27
2023-03-02T13:19:23.268Z,8.68
2023-03-02T13:21:50.509Z,8.30
2023-03-02T13:24:40.758Z,7.90
2023-03-02T13:27:08.460Z,6.90
2023-03-02T13:29:35.930Z,17.13
2023-03-02T13:32:22.777Z,9.40
2023-03-02T13:34:52.889Z,7.43
2023-03-02T13:37:21.072Z,6.53
2023-03-02T13:39:58.683Z,6.97
2023-03-02T13:42:26.925Z,7.65
2023-03-02T13:44:54.082Z,9.32
2023-03-02T13:47:24.847Z,8.15
2023-03-02T13:49:52.128Z,8.18
2023-03-02T13:52:19.819Z,7.45
2023-03-02T13:54:47.253Z,10.90
2023-03-02T13:57:16.098Z,8.32
2023-03-02T13:59:43.287Z,8.90
2023-03-02T14:02:21.743Z,10.70
2023-03-02T14:04:49.114Z,8.70
2023-03-02T14:07:17.580Z,8.35
2023-03-02T14:09:44.844Z,8.77
2023-03-02T14:12:28.164Z,7.32
2023-03-02T14:14:55.969Z,8.10
2023-03-02T14:17:23.879Z,8.57
2023-03-02T14:19:53.151Z,8.10
2023-03-02T14:22:20.834Z,10.13
2023-03-02T14:24:48.183Z,8.23
2023-03-02T14:27:16.103Z,8.02
2023-03-02T14:29:43.751Z,8.98
2023-03-02T14:32:11.386Z,9.18
2023-03-02T14:34:38.600Z,8.30
2023-03-02T14:37:07.473Z,8.43
2023-03-02T14:39:38.230Z,9.73
2023-03-02T14:42:05.805Z,8.38
2023-03-02T14:44:33.111Z,9.48
2023-03-02T14:47:00.331Z,11.50
2023-03-02T14:49:27.632Z,9.70
2023-03-02T14:52:05.979Z,9.40
2023-03-02T14:54:36.993Z,8.60
2023-03-02T14:57:06.254Z,9.73
2023-03-02T14:59:33.448Z,9.18
2023-03-02T15:02:10.272Z,8.55
2023-03-02T15:04:42.999Z,8.30
2023-03-02T15:07:12.316Z,8.23
2023-03-02T15:09:40.033Z,7.63
2023-03-02T15:12:07.681Z,10.83
2023-03-02T15:14:34.848Z,7.63
2023-03-02T15:17:02.061Z,7.07
2023-03-02T15:19:29.270Z,8.32
2023-03-02T15:21:57.068Z,7.80
2023-03-02T15:24:24.349Z,7.75
2023-03-02T15:26:51.516Z,7.28
2023-03-02T15:29:18.996Z,7.68
2023-03-02T15:31:46.283Z,7.55
2023-03-02T15:34:13.644Z,6.90
2023-03-02T15:36:40.967Z,7.93
2023-03-02T15:39:12.016Z,8.18
2023-03-02T15:41:39.293Z,11.07
2023-03-02T15:44:06.523Z,9.90
2023-03-02T15:46:33.755Z,8.73
2023-03-02T15:49:00.932Z,7.65
2023-03-02T15:51:28.097Z,7.78
2023-03-02T15:53:55.288Z,7.78
2023-03-02T15:56:23.843Z,8.20
2023-03-02T15:58:53.605Z,7.80
2023-03-02T16:01:20.988Z,8.47
2023-03-02T16:03:48.219Z,7.85
2023-03-02T16:06:17.635Z,14.82
2023-03-02T16:08:44.832Z,9.25
2023-03-02T16:11:12.146Z,8.68
2023-03-02T16:13:39.350Z,9.40
2023-03-02T16:16:06.821Z,8.98
2023-03-02T16:18:34.054Z,8.18
2023-03-02T16:21:02.712Z,33.90
2023-03-02T16:23:29.856Z,9.40
2023-03-02T16:26:06.374Z,9.05
2023-03-02T16:28:33.519Z,11.60
2023-03-02T16:31:04.681Z,16.63
2023-03-02T16:33:31.953Z,16.98
2023-03-02T16:35:59.106Z,21.92
2023-03-02T16:38:26.303Z,18.17
2023-03-02T16:40:54.604Z,13.88
2023-03-02T16:43:24.465Z,10.80
2023-03-02T16:45:52.165Z,11.57
2023-03-02T16:48:19.380Z,20.88
2023-03-02T16:50:46.655Z,27.23
2023-03-02T16:53:13.839Z,19.17
2023-03-02T16:55:41.086Z,14.88
2023-03-02T16:58:08.223Z,11.68
2023-03-02T17:00:35.871Z,12.45
2023-03-02T17:03:03.145Z,52.58
2023-03-02T17:05:30.279Z,38.33
2023-03-02T17:07:58.873Z,26.23
2023-03-02T17:10:26.095Z,15.50
2023-03-02T17:12:53.223Z,16.67
2023-03-02T17:15:20.375Z,32.15
2023-03-02T17:17:47.525Z,44.83
2023-03-02T17:20:14.852Z,22.92
2023-03-02T17:22:42.015Z,11.95
2023-03-02T17:25:10.969Z,12.90
2023-03-02T17:27:38.284Z,12.37
2023-03-02T17:30:05.932Z,12.57
2023-03-02T17:32:33.147Z,11.50
2023-03-02T17:35:01.432Z,15.65
2023-03-02T17:37:30.443Z,20.30
2023-03-02T17:39:57.934Z,22.85
2023-03-02T17:42:25.198Z,28.48
2023-03-02T17:55:27.743Z,17.25
2023-03-02T17:57:55.008Z,17.83
2023-03-02T18:00:22.617Z,13.25
2023-03-02T18:02:49.913Z,22.98
2023-03-02T18:05:17.229Z,24.48
2023-03-02T18:07:44.484Z,20.33
2023-03-02T18:10:12.086Z,14.93
2023-03-02T18:12:39.751Z,15.50
2023-03-02T18:15:07.877Z,17.80
2023-03-02T18:17:35.209Z,27.45
2023-03-02T18:20:02.668Z,19.75
2023-03-02T18:22:30.042Z,29.40
2023-03-02T18:24:57.481Z,20.42
2023-03-02T18:27:24.936Z,16.15
2023-03-02T18:29:52.188Z,15.88
2023-03-02T18:32:19.457Z,15.25
2023-03-02T18:34:46.715Z,15.55
2023-03-02T18:37:13.971Z,15.40
2023-03-02T18:39:41.177Z,16.20
2023-03-02T18:42:08.505Z,15.25
2023-03-02T18:44:35.889Z,14.45
2023-03-02T18:47:03.137Z,15.60
2023-03-02T18:49:30.400Z,15.77
2023-03-02T18:51:58.627Z,19.58
2023-03-02T18:54:25.896Z,23.95
2023-03-02T18:56:53.172Z,26.23
2023-03-02T18:59:20.454Z,21.55
2023-03-02T19:01:47.788Z,18.17
2023-03-02T19:04:15.299Z,18.42
2023-03-02T19:06:42.855Z,20.00
2023-03-02T19:09:10.705Z,16.40
2023-03-02T19:11:38.056Z,16.20
2023-03-02T19:14:05.307Z,16.67
2023-03-02T19:16:32.794Z,17.58
2023-03-02T19:19:00.201Z,24.45
2023-03-02T19:21:27.409Z,21.98
2023-03-02T19:23:54.710Z,17.13
2023-03-02T19:26:21.938Z,16.45
2023-03-02T19:28:49.336Z,20.60
2023-03-02T19:31:16.790Z,22.10
2023-03-02T19:33:45.274Z,20.20
2023-03-02T19:36:12.758Z,23.35
2023-03-02T19:38:44.303Z,18.30
2023-03-02T19:41:12.383Z,15.70
2023-03-02T19:43:41.605Z,16.85
2023-03-02T19:46:10.807Z,17.33
2023-03-02T19:48:38.194Z,18.98
2023-03-02T19:51:05.972Z,17.42
2023-03-02T19:53:33.587Z,19.00
2023-03-02T19:56:12.735Z,21.75
2023-03-02T19:58:47.134Z,18.38
2023-03-02T20:01:21.944Z,22.25
2023-03-02T20:03:51.571Z,18.67
2023-03-02T20:06:18.918Z,18.23
2023-03-02T20:08:48.071Z,17.23
2023-03-02T20:11:15.659Z,17.38
2023-03-02T20:13:42.932Z,21.07
2023-03-02T20:16:11.116Z,18.57
2023-03-02T20:18:39.440Z,17.03
2023-03-02T20:21:06.899Z,17.90
2023-03-02T20:23:34.515Z,17.00
2023-03-02T20:26:02.013Z,16.40
2023-03-02T20:28:29.295Z,13.93
2023-03-02T20:30:57.761Z,14.93
2023-03-02T20:33:26.893Z,15.02
2023-03-02T20:35:54.257Z,15.03
2023-03-02T20:38:29.458Z,13.88
2023-03-02T20:40:56.759Z,15.65
2023-03-02T20:43:24.028Z,16.67
2023-03-02T20:45:51.312Z,16.90
2023-03-02T20:48:18.588Z,15.82
2023-03-02T20:50:45.779Z,16.75
2023-03-02T20:53:13.712Z,16.20
2023-03-02T20:55:41.012Z,15.75
2023-03-02T20:58:08.680Z,15.80
2023-03-02T21:00:36.030Z,15.70
2023-03-02T21:03:03.400Z,16.55
2023-03-02T21:05:30.804Z,17.02
2023-03-02T21:07:58.037Z,17.45
2023-03-02T21:10:26.927Z,15.43
2023-03-02T21:12:54.308Z,17.80
2023-03-02T21:15:25.962Z,15.48
2023-03-02T21:17:54.604Z,17.50
2023-03-02T21:20:25.740Z,17.00
2023-03-02T21:22:53.012Z,17.27
2023-03-02T21:25:20.243Z,17.67
2023-03-02T21:27:47.512Z,17.63
2023-03-02T21:30:19.949Z,16.38
2023-03-02T21:32:47.782Z,18.45
2023-03-02T21:35:15.457Z,18.92
2023-03-02T21:37:43.175Z,19.10
2023-03-02T21:40:11.370Z,19.77
2023-03-02T21:42:38.652Z,17.37
2023-03-02T21:45:07.666Z,17.45
2023-03-02T21:47:34.971Z,16.52
2023-03-02T21:50:02.226Z,17.53
2023-03-02T21:52:29.430Z,19.97
2023-03-02T21:54:56.676Z,18.27
2023-03-02T21:57:23.925Z,19.17
2023-03-02T21:59:54.695Z,18.97
2023-03-02T22:02:22.107Z,17.52
2023-03-02T22:04:49.431Z,15.93
2023-03-02T22:07:16.694Z,16.58
2023-03-02T22:09:43.952Z,15.88
2023-03-02T22:12:14.535Z,15.53
2023-03-02T22:14:41.797Z,16.40
2023-03-02T22:17:35.566Z,15.43
2023-03-02T22:20:03.025Z,20.53
2023-03-02T22:22:30.538Z,15.60
2023-03-02T22:24:57.800Z,17.85
2023-03-02T22:27:25.815Z,18.27
2023-03-02T22:29:54.640Z,16.00
2023-03-02T22:32:23.127Z,15.80
2023-03-02T22:34:51.482Z,16.70
2023-03-02T22:37:19.743Z,15.88
2023-03-02T22:39:47.358Z,16.95
2023-03-02T22:42:16.016Z,14.43
2023-03-02T22:44:43.569Z,15.90
2023-03-02T22:47:18.053Z,13.77
2023-03-02T22:49:45.764Z,14.27
2023-03-02T22:52:14.081Z,16.25
2023-03-02T22:54:41.323Z,15.52
2023-03-02T22:57:23.659Z,13.65
2023-03-02T22:59:50.869Z,10.48
2023-03-02T23:02:18.723Z,14.73
2023-03-02T23:04:46.088Z,14.68
2023-03-02T23:07:15.250Z,12.88
2023-03-02T23:09:42.537Z,12.20
2023-03-02T23:12:16.968Z,12.75
2023-03-02T23:14:50.496Z,18.30
2023-03-02T23:17:39.494Z,13.43
2023-03-02T23:20:07.595Z,13.82
2023-03-02T23:22:34.843Z,14.02
2023-03-02T23:25:02.158Z,14.90
2023-03-02T23:27:29.372Z,19.40
2023-03-02T23:29:56.725Z,15.88
2023-03-02T23:32:24.108Z,14.73
2023-03-02T23:34:51.403Z,19.17
2023-03-02T23:37:18.672Z,24.40
2023-03-02T23:39:46.262Z,20.00
2023-03-02T23:42:13.607Z,22.88
2023-03-02T23:44:40.883Z,34.90
2023-03-02T23:47:08.138Z,18.90
2023-03-02T23:49:35.386Z,19.33
2023-03-02T23:52:03.598Z,29.38
2023-03-02T23:54:30.807Z,21.83
2023-03-02T23:56:58.078Z,20.10
2023-03-02T23:59:25.389Z,44.13
